Latest Weather Observations for Alva Beach

IDQ60801

Issued at 10:02 pm EST Saturday 24 June 2017 (issued every 30 minutes, with the page automatically refreshed every 10 minutes)

About weather observations | Map of weather stations | Latest weather observations for QLD | Other Formats
Station Details ID: 033295 Name: ALVA BEACH Lat: -19.46 Lon: 147.48 Height: 7.5 m
Data from the previous 72 hours. | See also: Recent months at Alva Beach
Date/Time
EST
Temp
°C
App
Temp
°C
Dew
Point
°C
Rel
Hum
%
Delta-T
°C
Wind Press
QNH
hPa
Press
MSL
hPa
Rain since
9am
mm
Dir  Spd
km/h
Gust
km/h
Spd
kts
Gust
kts
24/10:00pm 21.4 20.1 15.9 71 3.3 E 17 20 9 11 1017.3 1017.3 0.0
24/09:30pm 21.8 20.4 15.6 68 3.7 E 17 24 9 13 1017.2 1017.2 0.0
24/09:00pm 21.8 20.2 15.9 69 3.5 E 19 26 10 14 1017.0 1017.0 0.0
24/08:30pm 21.8 20.0 15.4 67 3.8 E 19 28 10 15 1016.8 1016.8 0.0
24/08:00pm 21.9 19.7 16.0 69 3.5 E 22 30 12 16 1016.6 1016.6 0.0
24/07:30pm 22.1 19.2 15.2 65 4.1 E 24 30 13 16 1016.5 1016.5 0.0
24/07:00pm 22.1 19.6 15.2 65 4.1 E 22 30 12 16 1016.4 1016.4 0.0
24/06:30pm 21.8 20.0 16.1 70 3.4 ENE 20 30 11 16 1016.2 1016.2 0.0
24/06:00pm 21.6 20.4 16.1 71 3.3 E 17 24 9 13 1016.0 1016.0 0.0
24/05:30pm 21.8 20.7 16.3 71 3.3 E 17 22 9 12 1015.8 1015.8 0.0
24/05:00pm 22.1 20.8 15.7 67 3.8 E 17 24 9 13 1015.5 1015.5 0.0
24/04:30pm 22.5 21.2 14.9 62 4.5 E 15 22 8 12 1015.4 1015.4 0.0
24/04:00pm 23.6 23.1 15.9 62 4.7 ESE 13 19 7 10 1015.3 1015.3 0.0
24/03:30pm 24.0 23.2 15.2 58 5.3 ESE 13 20 7 11 1015.4 1015.4 0.0
24/03:00pm 23.3 21.2 14.6 58 5.1 ESE 19 28 10 15 1015.6 1015.6 0.0
24/02:30pm 23.5 21.2 14.2 56 5.5 SE 19 28 10 15 1015.7 1015.7 0.0
24/02:00pm 23.9 22.3 15.1 58 5.3 SE 17 28 9 15 1015.5 1015.5 0.0
24/01:30pm 23.2 21.2 15.5 62 4.6 ESE 20 35 11 19 1015.8 1015.8 0.0
24/01:00pm 23.4 21.2 16.9 67 4.0 ESE 24 35 13 19 1016.4 1016.4 0.0
24/12:30pm 23.2 22.2 14.5 58 5.1 SE 13 24 7 13 1016.9 1016.9 0.0
24/12:00pm 23.9 23.1 15.1 58 5.3 SE 13 20 7 11 1017.1 1017.1 0.0
24/11:30am 22.2 21.4 16.0 68 3.7 SE 15 26 8 14 1017.5 1017.5 0.0
24/11:00am 21.5 20.5 15.6 69 3.5 ESE 15 20 8 11 1017.8 1017.8 0.0
24/10:30am 22.3 22.0 15.4 65 4.1 SE 11 17 6 9 1017.9 1017.9 0.0
24/10:00am 21.3 21.4 15.4 69 3.5 SSW 9 13 5 7 1017.7 1017.7 0.0
24/09:30am 20.0 21.8 15.4 75 2.7 CALM 0 6 0 3 1017.9 1017.9 0.0
24/09:00am 18.9 18.8 15.0 78 2.3 SSW 9 13 5 7 1018.0 1018.0 0.0
24/08:30am 18.1 18.2 15.4 84 1.6 SSW 9 15 5 8 1017.7 1017.7 0.0
24/08:00am 17.4 17.5 15.4 88 1.2 SSW 9 15 5 8 1017.1 1017.1 0.0
24/07:30am 16.6 16.2 15.1 91 0.9 SSW 11 17 6 9 1016.7 1016.7 0.0
24/07:00am 16.2 15.8 15.1 93 0.6 SSW 11 15 6 8 1016.6 1016.6 0.0
24/06:30am 15.9 15.7 14.8 93 0.6 SSW 9 13 5 7 1016.3 1016.3 0.0
24/06:00am 16.2 16.1 14.9 92 0.7 SSW 9 13 5 7 1016.1 1016.1 0.0
24/05:30am 16.9 17.0 14.5 86 1.4 SSW 7 11 4 6 1015.9 1015.9 0.0
24/05:00am 19.0 18.8 14.7 76 2.5 SE 9 19 5 10 1015.7 1015.7 0.0
24/04:30am 20.6 19.7 16.8 79 2.3 SE 17 24 9 13 1015.5 1015.5 0.0
24/04:00am 20.6 20.1 16.8 79 2.3 ESE 15 26 8 14 1015.8 1015.8 0.0
24/03:30am 20.4 20.2 16.6 79 2.3 ESE 13 20 7 11 1016.2 1016.2 0.0
24/03:00am 20.3 19.3 16.7 80 2.2 E 17 28 9 15 1016.5 1016.5 0.0
24/02:30am 20.4 18.8 16.4 78 2.4 ESE 20 32 11 17 1016.5 1016.5 0.0
24/02:00am 20.5 19.0 16.3 77 2.5 SE 19 32 10 17 1016.7 1016.7 0.0
24/01:30am 20.5 18.7 16.1 76 2.6 SE 20 30 11 16 1017.0 1017.0 0.0
24/01:00am 20.5 18.9 16.1 76 2.6 SE 19 32 10 17 1017.5 1017.5 0.0
24/12:30am 20.6 19.5 16.4 77 2.5 SE 17 28 9 15 1017.6 1017.6 0.0
24/12:00am 20.7 19.2 16.3 76 2.6 SE 19 28 10 15 1017.8 1017.8 0.0
 
Date/Time
EST
Temp
°C
App
Temp
°C
Dew
Point
°C
Rel
Hum
%
Delta-T
°C
Wind Press
QNH
hPa
Press
MSL
hPa
Rain since
9am
mm
Dir  Spd
km/h
Gust
km/h
Spd
kts
Gust
kts
23/11:30pm 20.8 18.8 15.6 72 3.1 SE 20 30 11 16 1018.0 1018.0 0.0
23/11:00pm 20.8 19.5 15.8 73 3.0 SE 17 26 9 14 1018.4 1018.4 0.0
23/10:30pm 20.8 19.3 16.2 75 2.8 SE 19 28 10 15 1018.5 1018.5 0.0
23/10:00pm 21.1 21.1 17.1 78 2.4 SE 13 22 7 12 1018.7 1018.7 0.0
23/09:30pm 21.2 19.6 16.4 74 2.9 ESE 20 30 11 16 1018.7 1018.7 0.0
23/09:00pm 21.2 20.1 16.4 74 2.9 ESE 17 26 9 14 1018.5 1018.5 0.0
23/08:30pm 21.4 20.0 17.0 76 2.7 E 20 28 11 15 1018.3 1018.3 0.0
23/08:00pm 21.4 19.5 16.6 74 2.9 E 22 32 12 17 1018.1 1018.1 0.0
23/07:30pm 21.5 19.8 16.2 72 3.2 E 20 28 11 15 1017.7 1017.7 0.0
23/07:00pm 21.1 20.3 17.1 78 2.4 E 17 22 9 12 1017.5 1017.5 0.0
23/06:30pm 20.9 20.0 16.9 78 2.4 ESE 17 24 9 13 1017.0 1017.0 0.0
23/06:00pm 21.0 19.7 16.8 77 2.5 E 19 28 10 15 1016.9 1016.9 0.0
23/05:30pm 21.3 20.0 17.3 78 2.5 E 20 30 11 16 1016.8 1016.8 0.0
23/05:00pm 21.9 20.4 16.8 73 3.1 ESE 20 30 11 16 1016.7 1016.7 0.0
23/04:30pm 22.6 21.1 16.2 67 3.9 ESE 19 30 10 16 1016.6 1016.6 0.0
23/04:00pm 23.1 21.3 15.9 64 4.3 ESE 20 30 11 16 1016.4 1016.4 0.0
23/03:30pm 23.0 21.4 16.1 65 4.2 E 19 28 10 15 1016.4 1016.4 0.0
23/03:00pm 23.2 21.9 15.8 63 4.5 E 17 24 9 13 1016.4 1016.4 0.0
23/02:30pm 23.9 22.2 15.7 60 5.0 E 19 24 10 13 1016.5 1016.5 0.0
23/02:00pm 24.1 22.7 15.6 59 5.1 ESE 17 24 9 13 1016.7 1016.7 0.0
23/01:30pm 23.9 22.3 14.9 57 5.4 ESE 17 26 9 14 1017.0 1017.0 0.0
23/01:00pm 24.1 22.1 13.9 53 6.0 ESE 17 24 9 13 1017.5 1017.5 0.0
23/12:30pm 23.7 21.7 13.8 53 5.8 SE 17 24 9 13 1018.0 1018.0 0.0
23/12:00pm 23.5 22.6 14.8 58 5.2 SE 13 24 7 13 1018.6 1018.6 0.0
23/11:30am 22.2 20.1 14.8 63 4.4 SE 19 24 10 13 1019.1 1019.1 0.0
23/11:00am 22.4 20.7 14.8 62 4.5 SE 17 26 9 14 1019.5 1019.5 0.0
23/10:30am 22.8 21.6 14.1 58 5.1 SE 13 22 7 12 1019.7 1019.7 0.0
23/10:00am 22.6 21.9 14.2 59 4.9 SE 11 20 6 11 1019.7 1019.7 0.0
23/09:30am 20.7 19.9 13.9 65 3.9 SSE 11 20 6 11 1019.9 1019.9 0.0
23/09:00am 18.6 17.9 13.2 71 3.0 S 9 17 5 9 1020.0 1020.0 0.0
23/08:30am 17.6 16.8 12.9 74 2.6 SSW 9 15 5 8 1019.8 1019.8 0.0
23/08:00am 15.8 14.7 12.0 78 2.1 SSW 9 15 5 8 1019.7 1019.7 0.0
23/07:30am 13.7 12.6 12.1 90 0.9 SSW 9 13 5 7 1019.5 1019.5 0.0
23/07:00am 12.7 11.7 11.1 90 0.8 SSW 7 9 4 5 1019.2 1019.2 0.0
23/06:30am 13.1 11.9 10.3 83 1.4 SSW 7 9 4 5 1018.8 1018.8 0.0
23/06:00am 14.0 13.1 11.2 83 1.5 SSW 7 11 4 6 1018.6 1018.6 0.0
23/05:30am 14.6 13.0 11.6 82 1.6 SSW 11 13 6 7 1018.3 1018.3 0.0
23/05:00am 15.4 14.0 12.3 82 1.7 S 11 15 6 8 1018.2 1018.2 0.0
23/04:30am 16.2 15.3 12.7 80 1.9 S 9 13 5 7 1018.2 1018.2 0.0
23/04:00am 16.9 16.5 13.0 78 2.2 S 7 11 4 6 1018.4 1018.4 0.0
23/03:30am 17.4 16.7 13.3 77 2.3 S 9 13 5 7 1018.5 1018.5 0.0
23/03:00am 17.8 16.8 13.5 76 2.4 SSE 11 17 6 9 1018.6 1018.6 0.0
23/02:30am 17.5 16.9 13.6 78 2.2 SSE 9 17 5 9 1018.8 1018.8 0.0
23/02:00am 17.4 16.7 13.1 76 2.4 SSE 9 17 5 9 1019.0 1019.0 0.0
23/01:30am 18.1 17.3 13.0 72 2.9 SSE 9 15 5 8 1019.3 1019.3 0.0
23/01:00am 20.2 18.0 14.3 69 3.4 SE 19 32 10 17 1019.6 1019.6 0.0
23/12:30am 20.1 17.7 14.5 70 3.3 ESE 20 30 11 16 1019.8 1019.8 0.0
23/12:00am 20.4 17.3 14.5 69 3.4 SE 24 35 13 19 1020.1 1020.1 0.0
 
Date/Time
EST
Temp
°C
App
Temp
°C
Dew
Point
°C
Rel
Hum
%
Delta-T
°C
Wind Press
QNH
hPa
Press
MSL
hPa
Rain since
9am
mm
Dir  Spd
km/h
Gust
km/h
Spd
kts
Gust
kts
22/11:30pm 20.5 17.7 15.3 72 3.1 ESE 24 39 13 21 1020.2 1020.2 0.0
22/11:00pm 20.8 18.6 14.9 69 3.5 SE 20 30 11 16 1020.4 1020.4 0.0
22/10:30pm 21.1 19.0 13.5 62 4.4 SE 17 28 9 15 1020.5 1020.5 0.0
22/10:00pm 21.0 19.3 14.6 67 3.7 SE 17 28 9 15 1020.7 1020.7 0.0
22/09:30pm 20.9 19.3 15.0 69 3.5 SE 17 28 9 15 1020.9 1020.9 0.0
22/09:00pm 20.9 19.9 14.5 67 3.7 SE 13 20 7 11 1020.8 1020.8 0.0
22/08:30pm 21.1 19.8 14.7 67 3.8 ESE 15 20 8 11 1020.7 1020.7 0.0
22/08:00pm 21.4 19.3 14.8 66 3.9 ESE 19 28 10 15 1020.5 1020.5 0.0
22/07:30pm 21.5 19.5 14.9 66 3.9 ESE 19 28 10 15 1020.2 1020.2 0.0
22/07:00pm 21.7 20.4 15.8 69 3.5 ESE 17 28 9 15 1019.9 1019.9 0.0
22/06:30pm 21.5 20.1 15.6 69 3.5 ESE 17 24 9 13 1019.5 1019.5 0.0
22/06:00pm 21.8 21.0 16.1 70 3.4 ESE 15 22 8 12 1019.3 1019.3 0.0
22/05:30pm 21.9 20.6 15.7 68 3.7 ESE 17 24 9 13 1019.2 1019.2 0.0
22/05:00pm 22.2 20.2 15.5 66 4.0 ESE 20 30 11 16 1018.9 1018.9 0.0
22/04:30pm 22.4 21.0 15.5 65 4.1 E 17 28 9 15 1018.7 1018.7 0.0
22/04:00pm 22.5 20.6 15.1 63 4.4 ESE 19 28 10 15 1018.6 1018.6 0.0
22/03:30pm 24.0 21.9 14.7 56 5.5 ESE 19 28 10 15 1018.7 1018.7 0.0
22/03:00pm 24.1 21.9 14.8 56 5.5 ESE 20 30 11 16 1018.6 1018.6 0.0
22/02:30pm 24.0 21.8 14.4 55 5.7 ESE 19 33 10 18 1018.7 1018.7 0.0
22/02:00pm 24.4 22.3 15.1 56 5.6 ESE 20 30 11 16 1018.8 1018.8 0.0
22/01:30pm 24.1 21.8 14.2 54 5.8 ESE 19 32 10 17 1019.1 1019.1 0.0
22/01:00pm 24.5 22.6 15.1 55 5.6 ESE 19 32 10 17 1019.6 1019.6 0.0
22/12:30pm 23.6 21.9 14.6 57 5.3 SE 17 30 9 16 1020.1 1020.1 0.0
22/12:00pm 23.6 21.5 13.5 53 5.9 SE 17 32 9 17 1020.7 1020.7 0.0
22/11:30am 23.5 21.1 13.7 54 5.7 SE 19 28 10 15 1021.0 1021.0 0.0
22/11:00am 23.3 21.6 12.6 51 6.1 SE 13 22 7 12 1021.2 1021.2 0.0
22/10:30am 22.9 21.8 13.1 54 5.6 SE 11 20 6 11 1021.5 1021.5 0.0
22/10:00am 21.6 20.8 13.0 58 4.9 SSE 9 17 5 9 1021.6 1021.6 0.0
22/09:30am 21.4 20.7 13.1 59 4.7 S 9 17 5 9 1021.7 1021.7 0.0
22/09:00am 20.2 19.1 13.2 64 4.0 S 11 17 6 9 1021.7 1021.7 0.0
22/08:30am 18.7 17.8 12.5 67 3.5 SSW 9 17 5 9 1021.5 1021.5 0.0
22/08:00am 18.0 17.1 12.7 71 2.9 S 9 17 5 9 1021.1 1021.1 0.0
22/07:30am 16.9 16.0 13.6 81 1.9 SSW 11 17 6 9 1020.9 1020.9 0.0
22/07:00am 15.9 15.4 13.9 88 1.1 SSW 9 13 5 7 1020.6 1020.6 0.0
22/06:30am 16.3 16.1 14.7 90 0.9 SSW 9 15 5 8 1020.4 1020.4 0.0
22/06:00am 15.5 15.1 14.2 92 0.7 S 9 15 5 8 1020.1 1020.1 0.0
22/05:30am 14.6 14.0 13.5 93 0.6 S 9 13 5 7 1019.9 1019.9 0.0
22/05:00am 14.1 13.7 13.0 93 0.6 S 7 11 4 6 1019.8 1019.8 0.0
22/04:30am 14.1 13.7 13.0 93 0.6 S 7 9 4 5 1019.9 1019.9 0.0
22/04:00am 14.4 14.0 13.0 91 0.8 S 7 11 4 6 1020.1 1020.1 0.0
22/03:30am 15.4 15.0 13.1 86 1.3 S 7 9 4 5 1020.1 1020.1 0.0
22/03:00am 16.5 16.2 13.2 81 1.8 S 7 11 4 6 1020.3 1020.3 0.0
22/02:30am 17.9 17.1 13.0 73 2.7 S 9 15 5 8 1020.1 1020.1 0.0
22/02:00am 19.9 18.5 14.5 71 3.1 SE 15 30 8 16 1020.2 1020.2 0.0
22/01:30am 20.4 18.2 15.0 71 3.2 SE 20 32 11 17 1020.7 1020.7 0.0
22/01:00am 20.5 18.4 15.3 72 3.1 ESE 20 32 11 17 1020.8 1020.8 0.0
22/12:30am 20.5 18.6 15.3 72 3.1 ESE 19 30 10 16 1021.0 1021.0 0.0
22/12:00am 20.6 18.4 14.9 70 3.3 ESE 20 30 11 16 1021.0 1021.0 0.0
 
Date/Time
EST
Temp
°C
App
Temp
°C
Dew
Point
°C
Rel
Hum
%
Delta-T
°C
Wind Press
QNH
hPa
Press
MSL
hPa
Rain since
9am
mm
Dir  Spd
km/h
Gust
km/h
Spd
kts
Gust
kts
21/11:30pm 20.6 18.0 14.9 70 3.3 ESE 22 35 12 19 1021.2 1021.2 0.0
21/11:00pm 20.6 17.7 15.2 71 3.2 ESE 24 37 13 20 1021.2 1021.2 0.0
21/10:30pm 20.7 17.9 15.3 71 3.2 ESE 24 35 13 19 1021.3 1021.3 0.0

Other Formats:

Comma delimited format used in spreadsheet applications
http://www.bom.gov.au/fwo/IDQ60801/IDQ60801.95296.axf

JavaScript Object Notation format (JSON) in row-major order
http://www.bom.gov.au/fwo/IDQ60801/IDQ60801.95296.json